Time;durP1;ratioP1;P1;durP2;ratioP2;P2;SDS_P1;SDS_P2;PMS_P1;PMS_P2;Temp;Humidity;BMP_temperature;BMP_pressure;BME280_temperature;BME280_humidity;BME280_pressure;Samples;Min_cycle;Max_cycle;Signal;HPM_P1;HPM_P2
2022/07/10 00:00:12;;;;;;;17.98;16.73;;;22.50;56.90;;;;;;5030641;28;20029;-82
2022/07/10 00:02:39;;;;;;;16.80;15.93;;;22.40;56.50;;;;;;5034355;28;20029;-82
2022/07/10 00:05:06;;;;;;;17.23;16.23;;;22.40;57.00;;;;;;5017427;28;20044;-82
2022/07/10 00:07:32;;;;;;;18.25;17.25;;;22.30;57.20;;;;;;5009501;28;20033;-83
2022/07/10 00:09:58;;;;;;;17.20;16.30;;;22.30;57.20;;;;;;5031124;28;20242;-83
2022/07/10 00:12:24;;;;;;;18.45;17.55;;;22.30;57.10;;;;;;5031512;28;20029;-83
2022/07/10 00:14:51;;;;;;;18.73;17.70;;;22.30;57.10;;;;;;5033991;28;20040;-83
2022/07/10 00:17:17;;;;;;;18.20;17.10;;;22.30;57.40;;;;;;5028827;28;20503;-82
2022/07/10 00:19:43;;;;;;;17.10;16.25;;;22.20;57.50;;;;;;5045697;28;20040;-82
2022/07/10 00:22:09;;;;;;;16.02;15.10;;;22.10;57.60;;;;;;5030293;28;20476;-82
2022/07/10 00:24:35;;;;;;;15.65;14.57;;;22.10;57.50;;;;;;5045866;28;20041;-83
2022/07/10 00:27:01;;;;;;;17.95;16.83;;;22.00;57.80;;;;;;5012636;28;20029;-83
2022/07/10 00:29:28;;;;;;;15.48;14.70;;;22.00;57.90;;;;;;5029495;28;20041;-82
2022/07/10 00:31:54;;;;;;;14.70;13.77;;;21.90;58.20;;;;;;5029656;28;20045;-82
2022/07/10 00:34:20;;;;;;;14.85;13.93;;;22.00;57.90;;;;;;5028867;28;20476;-82
2022/07/10 00:36:46;;;;;;;14.90;14.00;;;22.10;57.80;;;;;;5030130;28;20037;-82
2022/07/10 00:39:12;;;;;;;14.38;13.30;;;22.00;57.50;;;;;;5029303;28;20033;-82
2022/07/10 00:41:38;;;;;;;13.80;13.10;;;21.90;58.20;;;;;;5031235;28;20037;-82
2022/07/10 00:44:05;;;;;;;14.00;13.15;;;21.90;58.30;;;;;;5028694;28;20032;-82
2022/07/10 00:46:31;;;;;;;15.05;14.15;;;21.80;58.40;;;;;;5044686;28;20030;-83
2022/07/10 00:48:57;;;;;;;13.60;12.90;;;21.80;58.20;;;;;;5028570;28;20493;-82
2022/07/10 00:51:25;;;;;;;13.77;12.95;;;21.80;58.70;;;;;;5012185;28;20398;-82
2022/07/10 00:53:51;;;;;;;12.93;12.27;;;21.70;58.50;;;;;;4996705;28;20049;-83
2022/07/10 00:56:19;;;;;;;12.48;11.88;;;21.70;58.70;;;;;;5029149;28;20036;-82
2022/07/10 00:58:45;;;;;;;13.10;12.30;;;21.70;58.60;;;;;;5044853;28;20338;-83
2022/07/10 01:01:11;;;;;;;12.77;12.18;;;21.70;58.70;;;;;;5027551;28;20037;-83
2022/07/10 01:03:37;;;;;;;12.73;12.02;;;21.60;58.60;;;;;;5044839;28;20033;-82
2022/07/10 01:06:04;;;;;;;12.23;11.63;;;21.60;58.90;;;;;;5034442;28;20462;-82
2022/07/10 01:08:30;;;;;;;13.98;13.18;;;21.50;59.00;;;;;;5029089;28;20056;-83
2022/07/10 01:10:56;;;;;;;12.15;11.35;;;21.50;59.10;;;;;;5029664;28;20394;-82
2022/07/10 01:13:22;;;;;;;12.05;11.45;;;21.50;59.20;;;;;;5044448;28;20041;-82
2022/07/10 01:15:48;;;;;;;12.63;12.00;;;21.40;59.40;;;;;;5044674;28;20873;-82
2022/07/10 01:18:14;;;;;;;12.35;11.70;;;21.40;59.50;;;;;;5044822;28;20044;-82
2022/07/10 01:20:40;;;;;;;12.30;11.60;;;21.40;59.20;;;;;;5031149;28;20054;-82
2022/07/10 01:23:07;;;;;;;12.13;11.52;;;21.40;59.10;;;;;;5035482;28;20034;-83
2022/07/10 01:25:33;;;;;;;12.60;11.90;;;21.30;59.50;;;;;;5025997;28;20050;-83
2022/07/10 01:27:59;;;;;;;12.40;11.80;;;21.30;59.60;;;;;;5034567;28;20428;-82
2022/07/10 01:30:26;;;;;;;12.23;11.52;;;21.20;59.90;;;;;;5044302;28;20454;-82
2022/07/10 01:32:52;;;;;;;12.95;12.25;;;21.20;59.80;;;;;;5009166;28;20041;-83
2022/07/10 01:35:18;;;;;;;12.35;11.70;;;21.20;59.50;;;;;;5028315;28;20501;-82
2022/07/10 01:37:44;;;;;;;12.10;11.50;;;21.20;59.80;;;;;;5044742;28;20030;-82
2022/07/10 01:40:11;;;;;;;12.77;11.98;;;21.10;60.00;;;;;;5028325;28;20396;-82
2022/07/10 01:42:37;;;;;;;12.32;11.52;;;21.10;60.30;;;;;;5028245;28;20052;-82
2022/07/10 01:45:08;;;;;;;12.13;11.52;;;21.00;60.10;;;;;;5028397;28;20033;-82
2022/07/10 01:47:34;;;;;;;12.50;11.80;;;21.00;60.60;;;;;;5028377;28;20037;-82
2022/07/10 01:50:00;;;;;;;13.30;12.60;;;20.80;60.90;;;;;;5030097;28;20488;-82
2022/07/10 01:52:26;;;;;;;13.25;12.55;;;20.80;61.00;;;;;;5032182;28;20052;-82
2022/07/10 01:54:52;;;;;;;13.52;12.77;;;20.80;60.70;;;;;;5048724;28;20032;-82
2022/07/10 01:57:18;;;;;;;15.02;14.32;;;20.80;60.70;;;;;;5033379;28;20498;-82
2022/07/10 01:59:44;;;;;;;12.82;12.13;;;20.80;60.80;;;;;;5017256;28;20038;-82
2022/07/10 02:02:10;;;;;;;14.18;13.38;;;20.70;61.10;;;;;;5029087;28;20077;-82
2022/07/10 02:04:43;;;;;;;12.60;11.90;;;20.70;61.10;;;;;;5048580;28;20048;-82
2022/07/10 02:07:10;;;;;;;13.93;13.13;;;20.70;61.00;;;;;;5031836;28;20037;-82
2022/07/10 02:09:37;;;;;;;13.32;12.63;;;20.70;61.00;;;;;;5048082;28;20488;-82
2022/07/10 02:12:03;;;;;;;15.02;14.25;;;20.70;61.30;;;;;;5031354;28;20033;-82
2022/07/10 02:14:29;;;;;;;15.95;15.15;;;20.60;61.70;;;;;;5032341;28;20044;-82
2022/07/10 02:16:55;;;;;;;13.25;12.55;;;20.60;61.80;;;;;;5014256;28;20081;-82
2022/07/10 02:19:21;;;;;;;15.00;14.20;;;20.50;61.80;;;;;;5026687;28;20046;-82
2022/07/10 02:21:48;;;;;;;13.48;12.77;;;20.50;61.30;;;;;;5000409;28;20373;-82
2022/07/10 02:24:14;;;;;;;14.02;13.32;;;20.50;61.90;;;;;;5031425;28;20040;-82
2022/07/10 02:26:40;;;;;;;13.98;13.18;;;20.50;62.10;;;;;;5031783;28;20026;-81
2022/07/10 02:29:06;;;;;;;13.50;12.80;;;20.40;61.80;;;;;;5047710;28;20044;-82
2022/07/10 02:31:34;;;;;;;13.20;12.40;;;20.40;62.20;;;;;;5047071;28;20045;-82
2022/07/10 02:34:00;;;;;;;13.98;13.23;;;20.40;62.30;;;;;;5047752;28;20480;-81
2022/07/10 02:36:27;;;;;;;14.90;14.10;;;20.40;62.00;;;;;;5032757;28;20037;-82
2022/07/10 02:38:53;;;;;;;13.32;12.63;;;20.30;62.10;;;;;;5032557;28;20036;-82
2022/07/10 02:41:19;;;;;;;12.82;12.02;;;20.40;62.00;;;;;;5019254;28;20509;-82
2022/07/10 02:43:45;;;;;;;13.05;12.35;;;20.40;61.80;;;;;;5010802;28;20049;-82
2022/07/10 02:46:11;;;;;;;14.00;13.30;;;20.30;62.00;;;;;;5031798;28;20033;-82
2022/07/10 02:48:37;;;;;;;13.48;12.77;;;20.30;61.90;;;;;;5030733;28;20060;-82
2022/07/10 02:51:03;;;;;;;13.65;12.82;;;20.20;61.90;;;;;;5030962;28;20101;-82
2022/07/10 02:53:30;;;;;;;12.68;11.88;;;20.20;62.10;;;;;;5031754;28;20033;-82
2022/07/10 02:55:57;;;;;;;13.07;12.05;;;20.20;61.90;;;;;;5046907;28;20047;-82
2022/07/10 02:58:23;;;;;;;12.63;12.02;;;20.20;62.10;;;;;;5047165;28;20033;-82
2022/07/10 03:00:49;;;;;;;13.25;12.57;;;20.10;62.20;;;;;;5030141;28;20122;-82
2022/07/10 03:03:17;;;;;;;13.98;13.27;;;20.10;62.00;;;;;;5013332;28;20045;-82
2022/07/10 03:05:44;;;;;;;13.52;12.63;;;20.10;62.10;;;;;;5037046;28;20032;-82
2022/07/10 03:08:11;;;;;;;12.68;11.98;;;20.10;62.10;;;;;;5014068;28;20034;-81
2022/07/10 03:10:37;;;;;;;12.95;12.23;;;20.10;62.10;;;;;;5031420;28;20247;-82
2022/07/10 03:13:04;;;;;;;13.40;12.70;;;20.10;62.20;;;;;;5046871;28;20052;-82
2022/07/10 03:15:30;;;;;;;12.75;12.07;;;20.00;62.10;;;;;;5031060;28;20033;-82
2022/07/10 03:17:57;;;;;;;13.00;12.18;;;19.90;62.20;;;;;;5016105;28;20036;-82
2022/07/10 03:20:23;;;;;;;12.63;11.93;;;19.80;62.30;;;;;;5047421;28;20041;-82
2022/07/10 03:22:49;;;;;;;12.70;11.80;;;19.90;62.60;;;;;;5030046;28;20048;-82
2022/07/10 03:25:15;;;;;;;12.18;11.27;;;19.90;62.60;;;;;;5030150;28;20025;-82
2022/07/10 03:27:42;;;;;;;12.35;11.48;;;19.80;62.60;;;;;;5031460;28;20069;-82
2022/07/10 03:30:08;;;;;;;12.65;11.85;;;19.80;62.70;;;;;;5046169;28;20049;-82
2022/07/10 03:32:34;;;;;;;12.65;12.05;;;19.70;62.30;;;;;;5031048;28;20025;-82
2022/07/10 03:35:00;;;;;;;12.35;11.40;;;19.70;62.30;;;;;;5046233;28;20044;-82
2022/07/10 03:37:27;;;;;;;11.88;11.18;;;19.70;62.80;;;;;;5031252;28;20488;-82
2022/07/10 03:39:53;;;;;;;12.07;11.38;;;19.60;62.60;;;;;;5030264;28;20052;-82
2022/07/10 03:42:19;;;;;;;12.20;11.27;;;19.70;62.30;;;;;;5030934;28;20025;-82
2022/07/10 03:44:45;;;;;;;12.25;11.65;;;19.60;62.30;;;;;;5031967;28;20040;-81
2022/07/10 03:47:11;;;;;;;12.48;11.50;;;19.70;62.00;;;;;;5001305;28;20034;-82
2022/07/10 03:49:41;;;;;;;12.07;11.23;;;19.70;62.00;;;;;;5024932;28;20041;-82
2022/07/10 03:52:07;;;;;;;12.80;11.85;;;19.60;61.90;;;;;;5029258;28;20045;-82
2022/07/10 03:54:33;;;;;;;11.90;11.18;;;19.60;62.20;;;;;;5029676;28;20033;-82
2022/07/10 03:59:44;;;;;;;12.15;11.55;;;19.50;62.00;;;;;;5044838;28;20052;-82
2022/07/10 04:02:10;;;;;;;12.30;11.43;;;19.50;62.00;;;;;;5030107;28;20510;-82
2022/07/10 04:04:36;;;;;;;12.25;11.45;;;19.50;62.30;;;;;;5046203;28;20374;-82
2022/07/10 04:07:04;;;;;;;12.20;11.50;;;19.40;62.10;;;;;;5010742;28;20042;-82
2022/07/10 04:09:30;;;;;;;12.23;11.63;;;19.20;62.70;;;;;;5028870;28;20044;-82
2022/07/10 04:11:56;;;;;;;12.43;11.73;;;19.20;62.80;;;;;;5029784;28;20033;-82
2022/07/10 04:14:22;;;;;;;11.80;11.20;;;19.20;63.50;;;;;;5046503;28;20033;-82
2022/07/10 04:16:49;;;;;;;11.88;11.18;;;19.20;62.90;;;;;;5030184;28;20030;-82
2022/07/10 04:19:15;;;;;;;12.13;11.25;;;19.20;62.80;;;;;;5025584;28;20037;-82
2022/07/10 04:21:41;;;;;;;12.40;11.60;;;19.10;63.10;;;;;;5017752;28;20033;-82
2022/07/10 04:24:07;;;;;;;11.43;10.82;;;19.10;62.60;;;;;;5030660;28;20045;-81
2022/07/10 04:26:33;;;;;;;12.00;11.18;;;19.10;62.70;;;;;;5029875;28;20030;-80
2022/07/10 04:29:00;;;;;;;11.70;10.90;;;19.00;62.90;;;;;;5045761;28;20484;-82
2022/07/10 04:31:26;;;;;;;11.50;10.88;;;19.10;62.80;;;;;;5029782;28;20040;-81
2022/07/10 04:33:52;;;;;;;11.18;10.57;;;19.10;62.80;;;;;;5029105;28;20044;-82
2022/07/10 04:36:18;;;;;;;11.77;11.07;;;19.10;62.80;;;;;;5028044;28;20037;-82
2022/07/10 04:38:44;;;;;;;11.90;11.23;;;19.10;62.40;;;;;;5042011;28;20033;-82
2022/07/10 04:41:10;;;;;;;11.68;11.07;;;19.00;62.50;;;;;;5030149;28;20029;-82
2022/07/10 04:43:36;;;;;;;11.85;11.00;;;18.90;62.60;;;;;;5030055;28;20036;-81
2022/07/10 04:46:02;;;;;;;12.27;11.68;;;18.90;62.60;;;;;;5028202;28;20040;-82
2022/07/10 04:48:28;;;;;;;12.10;11.30;;;18.90;62.80;;;;;;5030186;28;20037;-82
2022/07/10 04:50:54;;;;;;;12.02;11.32;;;19.00;62.40;;;;;;5012408;28;20516;-82
2022/07/10 04:53:21;;;;;;;12.60;11.80;;;19.00;61.90;;;;;;5018424;28;20042;-81
2022/07/10 04:55:47;;;;;;;12.20;11.40;;;19.00;62.10;;;;;;5017372;28;20045;-82
2022/07/10 04:58:13;;;;;;;12.88;12.02;;;19.00;62.20;;;;;;5017337;28;20030;-82
2022/07/10 05:00:39;;;;;;;12.80;12.10;;;18.90;61.90;;;;;;5015053;28;20029;-82
2022/07/10 05:03:05;;;;;;;12.18;11.27;;;18.90;62.10;;;;;;5011249;28;20037;-82
2022/07/10 05:05:31;;;;;;;12.32;11.63;;;18.90;62.40;;;;;;5028836;28;20029;-81
2022/07/10 05:07:58;;;;;;;12.63;11.73;;;18.90;62.10;;;;;;5028405;28;20522;-82
2022/07/10 05:10:25;;;;;;;13.02;12.23;;;19.00;62.10;;;;;;5028208;28;20049;-82
2022/07/10 05:12:51;;;;;;;12.68;11.88;;;19.10;61.50;;;;;;5044859;28;20021;-82
2022/07/10 05:15:17;;;;;;;12.93;12.15;;;19.10;61.30;;;;;;5028817;28;20040;-82
2022/07/10 05:17:43;;;;;;;13.85;13.05;;;19.20;60.80;;;;;;5030417;28;20832;-82
2022/07/10 05:20:10;;;;;;;13.80;13.00;;;19.50;59.90;;;;;;5029337;28;20040;-82
2022/07/10 05:22:36;;;;;;;13.95;13.07;;;19.50;59.80;;;;;;5044700;28;20029;-82
2022/07/10 05:25:02;;;;;;;13.15;12.15;;;19.60;59.20;;;;;;5027051;28;20033;-82
2022/07/10 05:27:29;;;;;;;12.93;12.02;;;19.70;58.90;;;;;;5044792;28;20037;-82
2022/07/10 05:29:55;;;;;;;12.73;12.02;;;19.90;58.10;;;;;;5028650;28;20048;-82
2022/07/10 05:32:21;;;;;;;12.80;12.00;;;20.10;58.10;;;;;;5044955;28;20037;-82
2022/07/10 05:34:47;;;;;;;13.63;12.93;;;20.20;57.60;;;;;;5028867;28;20022;-83
2022/07/10 05:37:13;;;;;;;13.93;13.18;;;20.40;56.90;;;;;;5024893;28;20490;-83
2022/07/10 05:39:39;;;;;;;14.85;14.05;;;20.40;56.70;;;;;;5015451;28;20028;-83
2022/07/10 05:42:05;;;;;;;14.98;13.77;;;20.60;56.50;;;;;;5044737;28;20037;-83
2022/07/10 05:44:32;;;;;;;14.55;13.80;;;20.70;56.00;;;;;;5030265;28;20030;-83
2022/07/10 05:46:58;;;;;;;15.20;14.20;;;20.80;55.70;;;;;;5027585;28;20395;-82
2022/07/10 05:49:24;;;;;;;15.55;14.77;;;20.70;55.30;;;;;;5027916;28;20021;-83
2022/07/10 05:51:50;;;;;;;16.35;15.20;;;20.70;55.30;;;;;;5044593;28;20033;-83
2022/07/10 05:54:16;;;;;;;16.25;15.15;;;20.70;55.90;;;;;;5028522;28;20029;-83
2022/07/10 05:56:42;;;;;;;14.82;14.00;;;20.90;55.10;;;;;;5024380;28;20049;-83
2022/07/10 05:59:08;;;;;;;14.93;13.82;;;20.90;55.20;;;;;;5029242;28;20424;-83
2022/07/10 06:01:34;;;;;;;15.73;14.70;;;21.00;54.90;;;;;;5004364;28;20045;-83
2022/07/10 06:04:01;;;;;;;16.17;14.82;;;21.10;54.30;;;;;;5019331;28;20030;-82
2022/07/10 06:06:27;;;;;;;21.90;20.52;;;21.00;54.50;;;;;;5011415;28;20511;-83
2022/07/10 06:08:53;;;;;;;16.00;15.00;;;21.00;54.30;;;;;;5013343;28;20501;-83
2022/07/10 06:11:19;;;;;;;16.20;15.18;;;21.00;54.40;;;;;;5029652;28;20038;-83
2022/07/10 06:13:45;;;;;;;18.50;17.40;;;21.10;54.60;;;;;;5029259;28;20037;-83
2022/07/10 06:16:11;;;;;;;15.90;15.00;;;21.30;53.70;;;;;;5040859;28;20397;-83
2022/07/10 06:18:37;;;;;;;17.35;16.10;;;21.40;53.70;;;;;;5015843;28;20029;-83
2022/07/10 06:21:04;;;;;;;16.38;15.48;;;21.30;53.10;;;;;;5027958;28;20041;-83
2022/07/10 06:23:30;;;;;;;15.82;14.88;;;21.30;53.30;;;;;;5029705;28;20037;-83
2022/07/10 06:25:56;;;;;;;16.52;15.50;;;21.40;53.30;;;;;;5044376;28;20372;-83
2022/07/10 06:28:22;;;;;;;18.20;17.05;;;21.40;53.30;;;;;;5028699;28;20359;-83
2022/07/10 06:30:48;;;;;;;17.05;15.68;;;21.40;53.10;;;;;;5043396;28;20049;-83
2022/07/10 06:33:14;;;;;;;16.27;15.30;;;21.50;53.10;;;;;;5013071;28;20025;-83
2022/07/10 06:35:40;;;;;;;17.95;16.60;;;21.70;52.90;;;;;;5029734;28;20478;-83
2022/07/10 06:38:07;;;;;;;18.77;17.73;;;21.80;52.30;;;;;;5046499;28;20029;-82
2022/07/10 06:40:36;;;;;;;18.70;17.58;;;21.80;52.40;;;;;;5024968;28;20038;-83
2022/07/10 06:43:02;;;;;;;18.67;17.17;;;21.90;52.20;;;;;;5003248;28;20414;-83
2022/07/10 06:45:28;;;;;;;19.33;17.98;;;21.80;52.30;;;;;;5013981;28;20034;-83
2022/07/10 06:47:58;;;;;;;20.15;19.05;;;21.90;52.40;;;;;;5047954;28;20034;-83
2022/07/10 06:50:25;;;;;;;40.60;38.22;;;21.90;51.90;;;;;;5032618;28;20052;-83
2022/07/10 06:52:52;;;;;;;17.63;16.42;;;22.00;52.00;;;;;;5047413;28;20029;-83
2022/07/10 06:55:18;;;;;;;18.83;17.83;;;21.80;52.30;;;;;;5044481;28;20038;-83
2022/07/10 06:57:44;;;;;;;20.65;19.30;;;21.80;52.40;;;;;;5021610;28;20383;-83
2022/07/10 07:00:11;;;;;;;24.50;22.70;;;22.00;52.10;;;;;;5033457;28;20045;-84
2022/07/10 07:02:37;;;;;;;19.25;17.95;;;21.90;52.00;;;;;;5033363;28;20026;-83
2022/07/10 07:05:04;;;;;;;19.92;18.25;;;21.90;52.20;;;;;;5032957;28;20036;-83
2022/07/10 07:07:30;;;;;;;21.08;20.00;;;22.00;52.10;;;;;;5035381;28;20044;-83
2022/07/10 07:09:57;;;;;;;17.73;16.63;;;22.10;51.70;;;;;;5031514;28;20408;-84
2022/07/10 07:12:23;;;;;;;18.38;17.08;;;22.00;52.00;;;;;;5032801;28;20037;-83
2022/07/10 07:14:49;;;;;;;18.17;16.98;;;21.80;52.00;;;;;;5031120;28;20388;-83
2022/07/10 07:17:21;;;;;;;17.77;16.65;;;22.00;52.10;;;;;;5031311;28;20464;-83
2022/07/10 07:25:17;;;;;;;24.55;23.15;;;22.40;51.60;;;;;;5031881;28;20036;-83
2022/07/10 07:27:43;;;;;;;21.10;19.45;;;22.40;51.10;;;;;;5046826;28;20041;-83
2022/07/10 07:30:11;;;;;;;20.40;19.40;;;22.40;51.20;;;;;;5013160;28;20052;-83
2022/07/10 07:32:38;;;;;;;20.60;19.40;;;22.50;50.80;;;;;;5033103;28;20469;-83
2022/07/10 07:35:05;;;;;;;26.85;25.35;;;22.60;50.90;;;;;;5028712;28;20480;-83
2022/07/10 07:37:34;;;;;;;25.60;24.20;;;22.70;50.40;;;;;;5029970;28;20036;-84
2022/07/10 07:40:01;;;;;;;23.52;22.13;;;22.70;49.70;;;;;;5031182;28;20040;-82
2022/07/10 07:42:27;;;;;;;22.88;21.40;;;22.90;49.60;;;;;;5046542;28;20034;-83
2022/07/10 07:44:53;;;;;;;23.48;22.17;;;22.90;48.90;;;;;;5013627;28;20046;-83
2022/07/10 07:47:19;;;;;;;32.88;30.98;;;23.00;49.20;;;;;;5019143;28;20037;-84
2022/07/10 07:49:45;;;;;;;21.75;20.45;;;23.00;49.10;;;;;;5035465;28;20026;-83
2022/07/10 07:52:11;;;;;;;21.60;20.48;;;23.20;49.30;;;;;;5018717;28;20049;-83
2022/07/10 07:54:37;;;;;;;23.38;21.85;;;23.30;48.60;;;;;;5018647;28;20025;-84
2022/07/10 07:57:03;;;;;;;26.08;24.48;;;23.40;48.50;;;;;;5015219;28;20037;-84
2022/07/10 07:59:30;;;;;;;27.00;25.58;;;23.60;47.90;;;;;;5018157;28;20499;-84
2022/07/10 08:01:56;;;;;;;24.30;22.77;;;23.70;47.50;;;;;;5026916;28;20038;-83
2022/07/10 08:04:22;;;;;;;26.45;24.85;;;23.60;48.00;;;;;;5046021;28;20468;-83
2022/07/10 08:06:51;;;;;;;25.77;24.42;;;23.60;47.50;;;;;;5030865;28;20029;-84
2022/07/10 08:09:21;;;;;;;36.05;33.80;;;23.90;47.10;;;;;;5029781;28;20049;-84
2022/07/10 08:11:47;;;;;;;56.15;52.92;;;23.90;46.40;;;;;;5023140;28;20037;-83
2022/07/10 08:14:14;;;;;;;24.27;22.98;;;23.80;46.70;;;;;;5012674;28;20518;-85
2022/07/10 08:16:40;;;;;;;29.50;27.90;;;23.90;46.80;;;;;;5028976;28;20515;-85
2022/07/10 08:19:06;;;;;;;38.20;35.80;;;24.20;45.50;;;;;;5029076;28;20029;-85
2022/07/10 08:21:33;;;;;;;27.90;26.42;;;24.30;44.30;;;;;;5012366;28;20405;-85
2022/07/10 08:24:00;;;;;;;30.17;28.40;;;24.20;44.50;;;;;;5013394;28;20041;-86
2022/07/10 08:26:26;;;;;;;30.35;28.65;;;24.30;44.80;;;;;;5016727;28;20038;-85
2022/07/10 08:28:52;;;;;;;28.20;26.38;;;24.30;45.10;;;;;;5034052;28;20026;-85
2022/07/10 08:31:18;;;;;;;30.90;28.98;;;24.40;44.90;;;;;;5022558;28;20045;-85
2022/07/10 08:33:45;;;;;;;27.60;25.88;;;24.60;44.30;;;;;;5030369;28;20033;-84
2022/07/10 08:36:11;;;;;;;32.35;29.70;;;24.60;44.40;;;;;;5012221;28;20049;-85
2022/07/10 08:38:37;;;;;;;27.83;26.00;;;24.90;43.60;;;;;;5031385;28;20029;-85
2022/07/10 08:41:05;;;;;;;44.40;41.90;;;25.00;42.30;;;;;;5020428;28;20040;-85
2022/07/10 08:43:31;;;;;;;32.15;29.90;;;25.10;41.80;;;;;;5022180;28;20404;-85
2022/07/10 08:45:57;;;;;;;29.90;28.02;;;25.10;42.10;;;;;;5044314;28;20038;-85
2022/07/10 08:48:24;;;;;;;28.77;27.17;;;25.10;42.90;;;;;;5013954;28;20408;-85
2022/07/10 08:50:54;;;;;;;30.90;29.10;;;25.10;41.10;;;;;;5045728;28;20044;-85
2022/07/10 08:53:23;;;;;;;32.15;30.38;;;25.00;41.60;;;;;;5029281;28;20046;-85
2022/07/10 08:55:49;;;;;;;29.75;27.85;;;25.10;41.80;;;;;;5030141;28;20033;-85
2022/07/10 08:58:15;;;;;;;31.70;29.95;;;25.30;41.70;;;;;;5028561;28;20033;-85
2022/07/10 09:00:41;;;;;;;35.10;33.20;;;25.20;40.70;;;;;;5027689;28;20064;-85
2022/07/10 09:03:08;;;;;;;32.00;30.20;;;25.30;41.20;;;;;;5012800;28;20042;-85
2022/07/10 09:05:35;;;;;;;30.90;29.15;;;25.50;40.80;;;;;;5024881;28;20026;-85
2022/07/10 09:08:01;;;;;;;32.25;30.38;;;25.70;40.30;;;;;;5007983;28;20038;-85
2022/07/10 09:10:27;;;;;;;30.38;28.80;;;25.90;40.60;;;;;;5044960;28;20042;-85
2022/07/10 09:12:58;;;;;;;37.92;36.00;;;26.00;40.40;;;;;;5028143;28;20038;-85
2022/07/10 09:15:32;;;;;;;34.05;32.25;;;26.10;39.50;;;;;;5044020;28;20041;-86
2022/07/10 09:18:02;;;;;;;36.10;34.00;;;26.00;40.20;;;;;;5044772;28;20036;-86
2022/07/10 09:20:30;;;;;;;30.67;28.75;;;26.00;40.70;;;;;;5016096;28;20037;-85
2022/07/10 09:22:58;;;;;;;31.38;29.48;;;26.00;40.20;;;;;;5000191;28;20042;-85
2022/07/10 09:25:34;;;;;;;30.95;29.20;;;26.00;40.40;;;;;;5017052;28;20045;-85
2022/07/10 09:28:05;;;;;;;33.70;31.98;;;26.20;40.00;;;;;;5017065;28;20033;-85
2022/07/10 09:30:34;;;;;;;;;;;26.10;39.50;;;;;;5030240;28;20508;-85
2022/07/10 09:33:25;;;;;;;30.48;28.67;;;26.20;39.60;;;;;;5012547;28;19909;-86
2022/07/10 09:36:14;;;;;;;33.33;31.38;;;26.20;39.40;;;;;;5029812;28;20025;-85
2022/07/10 09:38:42;;;;;;;30.27;28.13;;;26.30;39.00;;;;;;5028224;28;20046;-85
2022/07/10 09:41:12;;;;;;;31.05;29.33;;;26.10;39.50;;;;;;5029795;28;20041;-86
2022/07/10 09:43:49;;;;;;;39.65;37.38;;;26.30;38.90;;;;;;5011823;28;20037;-86
2022/07/10 09:46:16;;;;;;;84.15;79.53;;;26.40;38.90;;;;;;5025842;28;20030;-86
2022/07/10 09:48:42;;;;;;;31.65;29.85;;;26.50;38.30;;;;;;5016348;28;20392;-86
2022/07/10 09:51:09;;;;;;;31.23;29.63;;;26.40;38.20;;;;;;5045783;28;20050;-86
2022/07/10 09:53:40;;;;;;;32.10;30.20;;;26.60;38.70;;;;;;5031004;28;20048;-86
2022/07/10 09:56:08;;;;;;;32.35;30.65;;;26.90;38.30;;;;;;5028178;28;20033;-85
2022/07/10 09:58:35;;;;;;;31.10;29.48;;;27.00;37.50;;;;;;5011455;28;20038;-86
2022/07/10 10:01:05;;;;;;;42.95;40.67;;;26.90;38.10;;;;;;5027348;28;20049;-85
2022/07/10 10:03:38;;;;;;;38.10;35.70;;;26.80;37.70;;;;;;5028022;28;20056;-85
2022/07/10 10:06:14;;;;;;;33.75;31.70;;;26.90;37.40;;;;;;5044120;28;20454;-86
2022/07/10 10:09:05;;;;;;;31.33;29.52;;;27.00;37.90;;;;;;5028620;28;20057;-86
2022/07/10 10:11:32;;;;;;;32.08;30.13;;;27.10;36.90;;;;;;5044379;28;20058;-86
2022/07/10 10:13:58;;;;;;;32.65;30.95;;;27.20;37.80;;;;;;5014904;28;20505;-86
2022/07/10 10:16:24;;;;;;;38.53;36.60;;;27.60;36.80;;;;;;5047731;28;20037;-86
2022/07/10 10:21:35;;;;;;;32.28;30.65;;;27.70;36.40;;;;;;5036245;28;20041;-86
2022/07/10 10:24:02;;;;;;;36.83;34.85;;;27.40;35.70;;;;;;5031530;28;20036;-85
2022/07/10 10:26:28;;;;;;;31.08;29.38;;;27.40;36.00;;;;;;5018190;28;20030;-85
2022/07/10 10:28:56;;;;;;;35.75;33.95;;;27.20;35.50;;;;;;5028868;28;20388;-86
2022/07/10 10:31:23;;;;;;;31.17;29.63;;;27.20;35.40;;;;;;5030654;28;20415;-86
2022/07/10 10:33:51;;;;;;;36.55;34.55;;;27.30;35.80;;;;;;5031503;28;20044;-86
2022/07/10 10:36:44;;;;;;;37.17;35.17;;;27.40;36.00;;;;;;5017256;28;20400;-86
2022/07/10 10:39:13;;;;;;;35.97;33.97;;;27.60;35.50;;;;;;5031664;28;20392;-86
2022/07/10 10:41:41;;;;;;;32.60;30.80;;;27.70;35.80;;;;;;5032182;28;20033;-86
2022/07/10 10:44:16;;;;;;;34.58;32.45;;;27.80;35.60;;;;;;5020610;28;20040;-86
2022/07/10 10:47:01;;;;;;;34.22;32.50;;;27.80;35.60;;;;;;5026481;28;20033;-86
2022/07/10 10:49:27;;;;;;;31.95;30.23;;;27.90;35.30;;;;;;5041875;28;20376;-86
2022/07/10 10:52:03;;;;;;;1999.90;999.90;;;28.00;34.50;;;;;;5020350;28;20033;-86
2022/07/10 10:54:31;;;;;;;35.03;33.33;;;28.10;33.60;;;;;;5030676;28;20515;-86
2022/07/10 10:57:13;;;;;;;527.92;276.42;;;27.90;33.60;;;;;;5031036;28;20522;-86
2022/07/10 10:59:45;;;;;;;33.75;32.05;;;28.10;34.30;;;;;;5017521;28;20052;-85
2022/07/10 11:02:32;;;;;;;34.75;33.05;;;28.00;34.10;;;;;;5018608;28;20045;-86
2022/07/10 11:05:20;;;;;;;32.33;30.27;;;28.10;34.20;;;;;;5012585;28;20052;-86
2022/07/10 11:08:02;;;;;;;34.55;32.72;;;28.20;34.70;;;;;;5011925;28;20507;-86
2022/07/10 11:10:36;;;;;;;36.95;34.92;;;28.20;34.20;;;;;;5041124;28;20052;-86
2022/07/10 11:13:09;;;;;;;35.95;33.95;;;28.30;34.60;;;;;;5046976;28;20033;-86
2022/07/10 11:15:40;;;;;;;35.25;33.50;;;28.30;34.80;;;;;;5046162;28;20509;-86
2022/07/10 11:18:07;;;;;;;1999.90;999.90;;;28.50;34.20;;;;;;5014643;28;20029;-86
2022/07/10 11:20:41;;;;;;;34.33;32.53;;;28.60;34.00;;;;;;5031232;28;20388;-86
2022/07/10 11:23:28;;;;;;;33.53;31.83;;;28.40;34.40;;;;;;5030511;28;20033;-86
2022/07/10 11:26:08;;;;;;;35.05;33.05;;;28.30;34.70;;;;;;5030359;28;20068;-86
2022/07/10 11:28:50;;;;;;;38.28;36.17;;;28.30;34.90;;;;;;5024481;28;20491;-86
2022/07/10 11:31:17;;;;;;;1999.90;999.90;;;28.50;34.80;;;;;;5035106;28;20432;-86
2022/07/10 11:33:46;;;;;;;38.85;36.85;;;28.70;34.20;;;;;;5018137;28;20028;-86
2022/07/10 11:36:13;;;;;;;37.17;35.28;;;28.70;34.40;;;;;;5013984;28;20079;-86
2022/07/10 11:38:41;;;;;;;34.40;32.60;;;28.70;33.70;;;;;;5014115;28;20042;-86
2022/07/10 11:41:17;;;;;;;36.72;34.92;;;28.50;34.20;;;;;;5030068;28;20092;-86
2022/07/10 11:44:00;;;;;;;33.28;31.48;;;28.60;34.00;;;;;;5023824;28;20032;-86
2022/07/10 11:46:27;;;;;;;37.05;35.25;;;28.60;34.40;;;;;;5022999;28;20036;-85
2022/07/10 11:48:54;;;;;;;44.22;42.13;;;28.50;33.90;;;;;;5010512;28;20034;-86
2022/07/10 11:51:23;;;;;;;1018.47;517.42;;;28.60;34.30;;;;;;5029689;28;20404;-86
2022/07/10 11:54:01;;;;;;;39.65;37.75;;;28.70;34.50;;;;;;5030555;28;20037;-86
2022/07/10 11:56:29;;;;;;;38.45;36.38;;;28.80;34.40;;;;;;5031732;28;20037;-86
2022/07/10 11:58:55;;;;;;;1999.90;999.90;;;28.70;34.40;;;;;;5029758;28;20029;-86
2022/07/10 12:01:22;;;;;;;1509.30;758.78;;;28.80;34.00;;;;;;5026170;28;20033;-85
2022/07/10 12:04:06;;;;;;;1999.90;999.90;;;29.10;34.40;;;;;;5019485;28;20033;-86
2022/07/10 12:06:34;;;;;;;1999.90;999.90;;;29.20;32.90;;;;;;5003255;28;20042;-86
2022/07/10 12:09:03;;;;;;;1523.55;772.25;;;29.10;33.40;;;;;;5030075;28;20046;-86
2022/07/10 12:11:29;;;;;;;1999.90;999.90;;;28.90;33.20;;;;;;5016205;28;20042;-88
2022/07/10 12:14:08;;;;;;;1999.90;999.90;;;28.90;33.10;;;;;;5043676;28;20052;-86
2022/07/10 12:16:37;;;;;;;1999.90;999.90;;;28.90;33.60;;;;;;5030179;28;20033;-86
2022/07/10 12:19:05;;;;;;;1999.90;999.90;;;29.10;33.20;;;;;;5030711;28;20036;-86
2022/07/10 12:21:31;;;;;;;1999.90;999.90;;;29.30;33.50;;;;;;5030609;28;20486;-83
2022/07/10 12:23:57;;;;;;;1999.90;999.90;;;29.40;32.70;;;;;;5014340;28;20511;-86
2022/07/10 12:26:24;;;;;;;1999.90;999.90;;;29.30;32.90;;;;;;5030889;28;20049;-86
2022/07/10 12:28:54;;;;;;;1999.90;999.90;;;29.20;33.10;;;;;;5014776;28;20044;-83
2022/07/10 12:31:28;;;;;;;1999.90;999.90;;;29.40;32.70;;;;;;5047008;28;20038;-83
2022/07/10 12:33:57;;;;;;;1999.90;999.90;;;29.50;32.90;;;;;;5031064;28;20339;-84
2022/07/10 12:36:24;;;;;;;1999.90;999.90;;;29.70;32.20;;;;;;5045475;28;20030;-84
2022/07/10 12:38:55;;;;;;;1999.90;999.90;;;29.70;32.00;;;;;;5045885;28;20033;-84